sensor_id;sensor_type;location;lat;lon;timestamp;temperature;humidity
51035;DHT22;37062;52.546;13.230;2023-04-24T00:00:38;14.70;99.90
51035;DHT22;37062;52.546;13.230;2023-04-24T00:03:07;14.70;99.90
51035;DHT22;37062;52.546;13.230;2023-04-24T00:05:36;14.70;99.90
51035;DHT22;37062;52.546;13.230;2023-04-24T00:08:04;14.70;99.90
51035;DHT22;37062;52.546;13.230;2023-04-24T00:10:34;14.70;99.90
51035;DHT22;37062;52.546;13.230;2023-04-24T00:13:02;14.70;99.90
51035;DHT22;37062;52.546;13.230;2023-04-24T00:15:30;14.70;99.90
51035;DHT22;37062;52.546;13.230;2023-04-24T00:17:59;14.60;99.90
51035;DHT22;37062;52.546;13.230;2023-04-24T00:20:28;14.70;99.90
51035;DHT22;37062;52.546;13.230;2023-04-24T00:22:56;14.70;99.90
51035;DHT22;37062;52.546;13.230;2023-04-24T00:25:24;14.60;99.90
51035;DHT22;37062;52.546;13.230;2023-04-24T00:27:54;14.50;99.90
51035;DHT22;37062;52.546;13.230;2023-04-24T00:30:22;14.50;99.90
51035;DHT22;37062;52.546;13.230;2023-04-24T00:32:51;14.50;99.90
51035;DHT22;37062;52.546;13.230;2023-04-24T00:35:19;14.40;99.90
51035;DHT22;37062;52.546;13.230;2023-04-24T00:37:47;14.40;99.90
51035;DHT22;37062;52.546;13.230;2023-04-24T00:40:16;14.40;99.90
51035;DHT22;37062;52.546;13.230;2023-04-24T00:42:45;14.30;99.90
51035;DHT22;37062;52.546;13.230;2023-04-24T00:45:14;14.20;99.90
51035;DHT22;37062;52.546;13.230;2023-04-24T00:47:43;14.10;99.90
51035;DHT22;37062;52.546;13.230;2023-04-24T00:50:14;14.10;99.90
51035;DHT22;37062;52.546;13.230;2023-04-24T00:52:43;14.10;99.90
51035;DHT22;37062;52.546;13.230;2023-04-24T00:55:11;14.10;99.90
51035;DHT22;37062;52.546;13.230;2023-04-24T00:57:39;14.10;99.90
51035;DHT22;37062;52.546;13.230;2023-04-24T01:00:09;14.10;99.90
51035;DHT22;37062;52.546;13.230;2023-04-24T01:02:41;14.10;99.90
51035;DHT22;37062;52.546;13.230;2023-04-24T01:05:12;14.10;99.90
51035;DHT22;37062;52.546;13.230;2023-04-24T01:07:44;14.10;99.90
51035;DHT22;37062;52.546;13.230;2023-04-24T01:10:14;14.20;99.90
51035;DHT22;37062;52.546;13.230;2023-04-24T01:12:45;14.20;99.90
51035;DHT22;37062;52.546;13.230;2023-04-24T01:15:13;14.20;99.90
51035;DHT22;37062;52.546;13.230;2023-04-24T01:17:43;14.30;99.90
51035;DHT22;37062;52.546;13.230;2023-04-24T01:20:13;14.30;99.90
51035;DHT22;37062;52.546;13.230;2023-04-24T01:22:43;14.40;99.90
51035;DHT22;37062;52.546;13.230;2023-04-24T01:25:12;14.40;99.90
51035;DHT22;37062;52.546;13.230;2023-04-24T01:27:40;14.60;99.90
51035;DHT22;37062;52.546;13.230;2023-04-24T01:30:09;14.70;99.90
51035;DHT22;37062;52.546;13.230;2023-04-24T01:32:38;14.80;99.90
51035;DHT22;37062;52.546;13.230;2023-04-24T01:35:07;14.70;99.90
51035;DHT22;37062;52.546;13.230;2023-04-24T01:37:36;14.70;99.90
51035;DHT22;37062;52.546;13.230;2023-04-24T01:40:08;14.60;99.90
51035;DHT22;37062;52.546;13.230;2023-04-24T01:42:36;14.50;99.90
51035;DHT22;37062;52.546;13.230;2023-04-24T01:45:05;14.60;99.90
51035;DHT22;37062;52.546;13.230;2023-04-24T01:47:34;14.50;99.90
51035;DHT22;37062;52.546;13.230;2023-04-24T01:50:02;14.60;99.90
51035;DHT22;37062;52.546;13.230;2023-04-24T01:52:31;14.60;99.90
51035;DHT22;37062;52.546;13.230;2023-04-24T01:55:00;14.70;99.90
51035;DHT22;37062;52.546;13.230;2023-04-24T01:57:30;14.80;99.90
51035;DHT22;37062;52.546;13.230;2023-04-24T01:59:59;14.70;99.90
51035;DHT22;37062;52.546;13.230;2023-04-24T02:02:28;14.70;99.90
51035;DHT22;37062;52.546;13.230;2023-04-24T02:04:57;14.70;99.90
51035;DHT22;37062;52.546;13.230;2023-04-24T02:07:25;14.60;99.90
51035;DHT22;37062;52.546;13.230;2023-04-24T02:09:53;14.50;99.90
51035;DHT22;37062;52.546;13.230;2023-04-24T02:12:22;14.40;99.90
51035;DHT22;37062;52.546;13.230;2023-04-24T02:14:52;14.40;99.90
51035;DHT22;37062;52.546;13.230;2023-04-24T02:17:20;14.50;99.90
51035;DHT22;37062;52.546;13.230;2023-04-24T02:19:49;14.60;99.90
51035;DHT22;37062;52.546;13.230;2023-04-24T02:22:17;14.60;99.90
51035;DHT22;37062;52.546;13.230;2023-04-24T02:24:46;14.60;99.90
51035;DHT22;37062;52.546;13.230;2023-04-24T02:27:15;14.60;99.90
51035;DHT22;37062;52.546;13.230;2023-04-24T02:29:43;14.60;99.90
51035;DHT22;37062;52.546;13.230;2023-04-24T02:32:13;14.70;99.90
51035;DHT22;37062;52.546;13.230;2023-04-24T02:34:43;14.70;99.90
51035;DHT22;37062;52.546;13.230;2023-04-24T02:37:12;14.60;99.90
51035;DHT22;37062;52.546;13.230;2023-04-24T02:39:40;14.60;99.90
51035;DHT22;37062;52.546;13.230;2023-04-24T02:42:08;14.70;99.90
51035;DHT22;37062;52.546;13.230;2023-04-24T02:44:37;14.70;99.90
51035;DHT22;37062;52.546;13.230;2023-04-24T02:47:05;14.70;99.90
51035;DHT22;37062;52.546;13.230;2023-04-24T02:49:35;14.70;99.90
51035;DHT22;37062;52.546;13.230;2023-04-24T02:52:04;14.70;99.90
51035;DHT22;37062;52.546;13.230;2023-04-24T02:54:32;14.60;99.90
51035;DHT22;37062;52.546;13.230;2023-04-24T02:57:01;14.60;99.90
51035;DHT22;37062;52.546;13.230;2023-04-24T02:59:29;14.50;99.90
51035;DHT22;37062;52.546;13.230;2023-04-24T03:01:58;14.40;99.90
51035;DHT22;37062;52.546;13.230;2023-04-24T03:04:26;14.40;99.90
51035;DHT22;37062;52.546;13.230;2023-04-24T03:06:56;14.20;99.90
51035;DHT22;37062;52.546;13.230;2023-04-24T03:09:25;14.30;99.90
51035;DHT22;37062;52.546;13.230;2023-04-24T03:11:54;14.30;99.90
51035;DHT22;37062;52.546;13.230;2023-04-24T03:14:24;14.40;99.90
51035;DHT22;37062;52.546;13.230;2023-04-24T03:16:52;14.40;99.90
51035;DHT22;37062;52.546;13.230;2023-04-24T03:19:20;14.40;99.90
51035;DHT22;37062;52.546;13.230;2023-04-24T03:22:01;14.40;99.90
51035;DHT22;37062;52.546;13.230;2023-04-24T03:24:30;14.40;99.90
51035;DHT22;37062;52.546;13.230;2023-04-24T03:26:59;14.50;99.90
51035;DHT22;37062;52.546;13.230;2023-04-24T03:29:43;14.50;99.90
51035;DHT22;37062;52.546;13.230;2023-04-24T03:32:13;14.50;99.90
51035;DHT22;37062;52.546;13.230;2023-04-24T03:34:41;14.50;99.90
51035;DHT22;37062;52.546;13.230;2023-04-24T03:37:14;14.60;99.90
51035;DHT22;37062;52.546;13.230;2023-04-24T03:39:49;14.60;99.90
51035;DHT22;37062;52.546;13.230;2023-04-24T03:42:22;14.60;99.90
51035;DHT22;37062;52.546;13.230;2023-04-24T03:44:54;14.70;99.90
51035;DHT22;37062;52.546;13.230;2023-04-24T03:47:28;14.70;99.90
51035;DHT22;37062;52.546;13.230;2023-04-24T03:49:59;14.70;99.90
51035;DHT22;37062;52.546;13.230;2023-04-24T03:52:30;14.70;99.90
51035;DHT22;37062;52.546;13.230;2023-04-24T03:54:58;14.70;99.90
51035;DHT22;37062;52.546;13.230;2023-04-24T03:57:29;14.70;99.90
51035;DHT22;37062;52.546;13.230;2023-04-24T04:00:09;14.70;99.90
51035;DHT22;37062;52.546;13.230;2023-04-24T04:02:43;14.80;99.90
51035;DHT22;37062;52.546;13.230;2023-04-24T04:05:12;14.80;99.90
51035;DHT22;37062;52.546;13.230;2023-04-24T04:07:42;14.80;99.90
51035;DHT22;37062;52.546;13.230;2023-04-24T04:10:11;14.90;99.90
51035;DHT22;37062;52.546;13.230;2023-04-24T04:12:39;14.90;99.90
51035;DHT22;37062;52.546;13.230;2023-04-24T04:15:08;14.90;99.90
51035;DHT22;37062;52.546;13.230;2023-04-24T04:17:36;14.90;99.90
51035;DHT22;37062;52.546;13.230;2023-04-24T04:20:07;14.80;99.90
51035;DHT22;37062;52.546;13.230;2023-04-24T04:22:39;14.80;99.90
51035;DHT22;37062;52.546;13.230;2023-04-24T04:25:15;14.80;99.90
51035;DHT22;37062;52.546;13.230;2023-04-24T04:27:46;14.90;99.90
51035;DHT22;37062;52.546;13.230;2023-04-24T04:30:15;14.90;99.90
51035;DHT22;37062;52.546;13.230;2023-04-24T04:32:51;14.90;99.90
51035;DHT22;37062;52.546;13.230;2023-04-24T04:35:21;14.90;99.90
51035;DHT22;37062;52.546;13.230;2023-04-24T04:37:51;14.90;99.90
51035;DHT22;37062;52.546;13.230;2023-04-24T04:40:32;15.00;99.90
51035;DHT22;37062;52.546;13.230;2023-04-24T04:43:04;15.00;99.90
51035;DHT22;37062;52.546;13.230;2023-04-24T04:45:41;15.00;99.90
51035;DHT22;37062;52.546;13.230;2023-04-24T04:48:33;15.00;99.90
51035;DHT22;37062;52.546;13.230;2023-04-24T04:51:04;15.00;99.90
51035;DHT22;37062;52.546;13.230;2023-04-24T04:53:33;15.10;99.90
51035;DHT22;37062;52.546;13.230;2023-04-24T04:56:03;15.10;99.90
51035;DHT22;37062;52.546;13.230;2023-04-24T04:58:39;15.20;99.90
51035;DHT22;37062;52.546;13.230;2023-04-24T05:01:10;15.20;99.90
51035;DHT22;37062;52.546;13.230;2023-04-24T05:03:41;15.30;99.90
51035;DHT22;37062;52.546;13.230;2023-04-24T05:06:13;15.40;99.90
51035;DHT22;37062;52.546;13.230;2023-04-24T05:08:44;15.40;99.90
51035;DHT22;37062;52.546;13.230;2023-04-24T05:11:27;15.50;99.90
51035;DHT22;37062;52.546;13.230;2023-04-24T05:13:57;15.80;99.90
51035;DHT22;37062;52.546;13.230;2023-04-24T05:16:34;16.10;99.90
51035;DHT22;37062;52.546;13.230;2023-04-24T05:19:05;16.20;99.90
51035;DHT22;37062;52.546;13.230;2023-04-24T05:21:39;16.30;99.90
51035;DHT22;37062;52.546;13.230;2023-04-24T05:24:08;16.60;99.90
51035;DHT22;37062;52.546;13.230;2023-04-24T05:26:51;16.80;99.90
51035;DHT22;37062;52.546;13.230;2023-04-24T05:29:24;17.00;99.90
51035;DHT22;37062;52.546;13.230;2023-04-24T05:31:53;17.10;99.90
51035;DHT22;37062;52.546;13.230;2023-04-24T05:34:22;17.20;99.90
51035;DHT22;37062;52.546;13.230;2023-04-24T05:36:54;17.30;99.90
51035;DHT22;37062;52.546;13.230;2023-04-24T05:39:22;17.60;99.90
51035;DHT22;37062;52.546;13.230;2023-04-24T05:41:54;17.80;99.90
51035;DHT22;37062;52.546;13.230;2023-04-24T05:44:24;18.00;99.90
51035;DHT22;37062;52.546;13.230;2023-04-24T05:46:53;18.20;99.90
51035;DHT22;37062;52.546;13.230;2023-04-24T05:49:23;18.40;99.90
51035;DHT22;37062;52.546;13.230;2023-04-24T05:51:51;18.70;99.90
51035;DHT22;37062;52.546;13.230;2023-04-24T05:54:19;18.90;99.90
51035;DHT22;37062;52.546;13.230;2023-04-24T05:56:49;18.90;99.90
51035;DHT22;37062;52.546;13.230;2023-04-24T05:59:31;18.80;99.90
51035;DHT22;37062;52.546;13.230;2023-04-24T06:01:59;19.00;99.90
51035;DHT22;37062;52.546;13.230;2023-04-24T06:04:27;19.20;99.90
51035;DHT22;37062;52.546;13.230;2023-04-24T06:06:58;19.40;99.90
51035;DHT22;37062;52.546;13.230;2023-04-24T06:09:26;19.60;99.90
51035;DHT22;37062;52.546;13.230;2023-04-24T06:11:55;19.60;99.90
51035;DHT22;37062;52.546;13.230;2023-04-24T06:14:33;19.60;99.90
51035;DHT22;37062;52.546;13.230;2023-04-24T06:17:16;19.70;99.90
51035;DHT22;37062;52.546;13.230;2023-04-24T06:19:46;19.80;99.90
51035;DHT22;37062;52.546;13.230;2023-04-24T06:22:15;20.20;99.90
51035;DHT22;37062;52.546;13.230;2023-04-24T06:24:43;20.60;99.90
51035;DHT22;37062;52.546;13.230;2023-04-24T06:27:11;21.00;99.90
51035;DHT22;37062;52.546;13.230;2023-04-24T06:29:43;21.50;99.90
51035;DHT22;37062;52.546;13.230;2023-04-24T06:32:11;22.10;99.90
51035;DHT22;37062;52.546;13.230;2023-04-24T06:34:40;22.60;99.90
51035;DHT22;37062;52.546;13.230;2023-04-24T06:37:09;23.20;99.90
51035;DHT22;37062;52.546;13.230;2023-04-24T06:39:37;23.60;99.90
51035;DHT22;37062;52.546;13.230;2023-04-24T06:42:05;24.10;99.90
51035;DHT22;37062;52.546;13.230;2023-04-24T06:44:35;24.60;99.90
51035;DHT22;37062;52.546;13.230;2023-04-24T06:47:09;24.90;99.90
51035;DHT22;37062;52.546;13.230;2023-04-24T06:49:40;24.70;99.90
51035;DHT22;37062;52.546;13.230;2023-04-24T06:52:09;24.50;99.90
51035;DHT22;37062;52.546;13.230;2023-04-24T06:54:37;24.60;99.90
51035;DHT22;37062;52.546;13.230;2023-04-24T06:57:05;24.90;99.90
51035;DHT22;37062;52.546;13.230;2023-04-24T06:59:33;25.00;99.90
51035;DHT22;37062;52.546;13.230;2023-04-24T07:02:02;24.70;99.90
51035;DHT22;37062;52.546;13.230;2023-04-24T07:04:31;24.20;99.90
51035;DHT22;37062;52.546;13.230;2023-04-24T07:06:59;23.80;99.90
51035;DHT22;37062;52.546;13.230;2023-04-24T07:09:28;23.30;99.90
51035;DHT22;37062;52.546;13.230;2023-04-24T07:11:56;23.20;99.90
51035;DHT22;37062;52.546;13.230;2023-04-24T07:14:24;23.30;99.90
51035;DHT22;37062;52.546;13.230;2023-04-24T07:16:52;23.40;99.90
51035;DHT22;37062;52.546;13.230;2023-04-24T07:19:20;23.60;99.90
51035;DHT22;37062;52.546;13.230;2023-04-24T07:21:50;23.70;99.90
51035;DHT22;37062;52.546;13.230;2023-04-24T07:24:18;23.90;99.90
51035;DHT22;37062;52.546;13.230;2023-04-24T07:26:49;24.00;99.90
51035;DHT22;37062;52.546;13.230;2023-04-24T07:29:19;24.00;99.90
51035;DHT22;37062;52.546;13.230;2023-04-24T07:31:47;24.10;99.90
51035;DHT22;37062;52.546;13.230;2023-04-24T07:34:16;24.40;99.90
51035;DHT22;37062;52.546;13.230;2023-04-24T07:36:44;25.00;99.90
51035;DHT22;37062;52.546;13.230;2023-04-24T07:39:14;25.60;99.90
51035;DHT22;37062;52.546;13.230;2023-04-24T07:41:42;26.20;99.90
51035;DHT22;37062;52.546;13.230;2023-04-24T07:44:10;26.80;99.90
51035;DHT22;37062;52.546;13.230;2023-04-24T07:46:38;27.30;99.90
51035;DHT22;37062;52.546;13.230;2023-04-24T07:49:06;27.80;99.90
51035;DHT22;37062;52.546;13.230;2023-04-24T07:51:40;28.20;99.90
51035;DHT22;37062;52.546;13.230;2023-04-24T07:54:08;28.50;99.90
51035;DHT22;37062;52.546;13.230;2023-04-24T07:56:38;28.70;99.90
51035;DHT22;37062;52.546;13.230;2023-04-24T07:59:06;28.80;99.90
51035;DHT22;37062;52.546;13.230;2023-04-24T08:01:36;28.60;99.90
51035;DHT22;37062;52.546;13.230;2023-04-24T08:04:05;28.30;99.90
51035;DHT22;37062;52.546;13.230;2023-04-24T08:06:34;28.10;99.90
51035;DHT22;37062;52.546;13.230;2023-04-24T08:09:02;28.10;99.90
51035;DHT22;37062;52.546;13.230;2023-04-24T08:11:31;28.10;99.90
51035;DHT22;37062;52.546;13.230;2023-04-24T08:14:01;28.00;99.90
51035;DHT22;37062;52.546;13.230;2023-04-24T08:16:29;28.10;99.90
51035;DHT22;37062;52.546;13.230;2023-04-24T08:18:57;28.30;99.90
51035;DHT22;37062;52.546;13.230;2023-04-24T08:21:25;28.20;99.90
51035;DHT22;37062;52.546;13.230;2023-04-24T08:23:54;27.90;99.90
51035;DHT22;37062;52.546;13.230;2023-04-24T08:26:22;27.90;99.90
51035;DHT22;37062;52.546;13.230;2023-04-24T08:28:50;28.00;99.90
51035;DHT22;37062;52.546;13.230;2023-04-24T08:31:20;27.80;99.90
51035;DHT22;37062;52.546;13.230;2023-04-24T08:33:49;27.30;99.90
51035;DHT22;37062;52.546;13.230;2023-04-24T08:36:17;27.00;99.90
51035;DHT22;37062;52.546;13.230;2023-04-24T08:38:46;26.70;99.90
51035;DHT22;37062;52.546;13.230;2023-04-24T08:41:14;26.30;99.90
51035;DHT22;37062;52.546;13.230;2023-04-24T08:43:43;26.10;99.90
51035;DHT22;37062;52.546;13.230;2023-04-24T08:46:13;25.90;99.90
51035;DHT22;37062;52.546;13.230;2023-04-24T08:48:45;25.80;99.90
51035;DHT22;37062;52.546;13.230;2023-04-24T08:51:13;25.70;99.90
51035;DHT22;37062;52.546;13.230;2023-04-24T08:53:42;25.30;99.90
51035;DHT22;37062;52.546;13.230;2023-04-24T08:56:11;25.10;99.90
51035;DHT22;37062;52.546;13.230;2023-04-24T08:58:40;25.10;99.90
51035;DHT22;37062;52.546;13.230;2023-04-24T09:01:09;25.10;99.90
51035;DHT22;37062;52.546;13.230;2023-04-24T09:03:37;25.10;99.90
51035;DHT22;37062;52.546;13.230;2023-04-24T09:06:08;25.10;99.90
51035;DHT22;37062;52.546;13.230;2023-04-24T09:08:38;25.10;99.90
51035;DHT22;37062;52.546;13.230;2023-04-24T09:11:08;25.00;99.90
51035;DHT22;37062;52.546;13.230;2023-04-24T09:13:38;24.90;99.90
51035;DHT22;37062;52.546;13.230;2023-04-24T09:16:06;24.80;99.90
51035;DHT22;37062;52.546;13.230;2023-04-24T09:18:34;24.60;99.90
51035;DHT22;37062;52.546;13.230;2023-04-24T09:21:06;24.40;99.90
51035;DHT22;37062;52.546;13.230;2023-04-24T09:23:36;24.40;99.90
51035;DHT22;37062;52.546;13.230;2023-04-24T09:26:04;24.40;99.90
51035;DHT22;37062;52.546;13.230;2023-04-24T09:28:35;24.40;99.90
51035;DHT22;37062;52.546;13.230;2023-04-24T09:31:05;24.50;99.90
51035;DHT22;37062;52.546;13.230;2023-04-24T09:33:35;24.60;99.90
51035;DHT22;37062;52.546;13.230;2023-04-24T09:36:03;24.60;99.90
51035;DHT22;37062;52.546;13.230;2023-04-24T09:38:34;24.50;99.90
51035;DHT22;37062;52.546;13.230;2023-04-24T09:41:05;24.30;99.90
51035;DHT22;37062;52.546;13.230;2023-04-24T09:43:35;24.00;99.90
51035;DHT22;37062;52.546;13.230;2023-04-24T09:46:07;23.80;99.90
51035;DHT22;37062;52.546;13.230;2023-04-24T09:48:37;23.50;99.90
51035;DHT22;37062;52.546;13.230;2023-04-24T09:51:06;23.40;99.90
51035;DHT22;37062;52.546;13.230;2023-04-24T09:53:37;23.50;99.90
51035;DHT22;37062;52.546;13.230;2023-04-24T09:56:12;23.50;99.90
51035;DHT22;37062;52.546;13.230;2023-04-24T09:58:41;23.50;99.90
51035;DHT22;37062;52.546;13.230;2023-04-24T10:01:09;23.40;99.90
51035;DHT22;37062;52.546;13.230;2023-04-24T10:03:37;23.30;99.90
51035;DHT22;37062;52.546;13.230;2023-04-24T10:06:06;23.20;99.90
51035;DHT22;37062;52.546;13.230;2023-04-24T10:08:37;23.20;99.90
51035;DHT22;37062;52.546;13.230;2023-04-24T10:11:05;23.20;99.90
51035;DHT22;37062;52.546;13.230;2023-04-24T10:13:35;23.20;99.90
51035;DHT22;37062;52.546;13.230;2023-04-24T10:16:04;23.30;99.90
51035;DHT22;37062;52.546;13.230;2023-04-24T10:18:33;23.20;99.90
51035;DHT22;37062;52.546;13.230;2023-04-24T10:21:02;23.10;99.90
51035;DHT22;37062;52.546;13.230;2023-04-24T10:23:32;23.10;99.90
51035;DHT22;37062;52.546;13.230;2023-04-24T10:26:01;23.00;99.90
51035;DHT22;37062;52.546;13.230;2023-04-24T10:28:30;22.90;99.90
51035;DHT22;37062;52.546;13.230;2023-04-24T10:31:04;22.90;99.90
51035;DHT22;37062;52.546;13.230;2023-04-24T10:33:32;22.90;99.90
51035;DHT22;37062;52.546;13.230;2023-04-24T10:36:01;22.80;99.90
51035;DHT22;37062;52.546;13.230;2023-04-24T10:38:31;22.70;99.90
51035;DHT22;37062;52.546;13.230;2023-04-24T10:41:07;22.50;99.90
51035;DHT22;37062;52.546;13.230;2023-04-24T10:43:36;22.40;99.90
51035;DHT22;37062;52.546;13.230;2023-04-24T10:46:06;22.20;99.90
51035;DHT22;37062;52.546;13.230;2023-04-24T10:48:35;22.10;99.90
51035;DHT22;37062;52.546;13.230;2023-04-24T10:51:04;22.00;99.90
51035;DHT22;37062;52.546;13.230;2023-04-24T10:53:35;22.00;99.90
51035;DHT22;37062;52.546;13.230;2023-04-24T10:56:04;22.00;99.90
51035;DHT22;37062;52.546;13.230;2023-04-24T10:58:37;22.10;99.90
51035;DHT22;37062;52.546;13.230;2023-04-24T11:01:08;22.30;99.90
51035;DHT22;37062;52.546;13.230;2023-04-24T11:03:37;22.40;99.90
51035;DHT22;37062;52.546;13.230;2023-04-24T11:06:09;22.50;99.90
51035;DHT22;37062;52.546;13.230;2023-04-24T11:08:39;22.60;99.90
51035;DHT22;37062;52.546;13.230;2023-04-24T11:11:11;22.60;99.90
51035;DHT22;37062;52.546;13.230;2023-04-24T11:14:05;22.50;99.90
51035;DHT22;37062;52.546;13.230;2023-04-24T11:16:43;22.50;99.90
51035;DHT22;37062;52.546;13.230;2023-04-24T11:19:21;22.50;99.90
51035;DHT22;37062;52.546;13.230;2023-04-24T11:21:56;22.60;99.90
51035;DHT22;37062;52.546;13.230;2023-04-24T11:24:30;22.80;99.90
51035;DHT22;37062;52.546;13.230;2023-04-24T11:27:05;22.90;99.90
51035;DHT22;37062;52.546;13.230;2023-04-24T11:29:44;23.00;99.90
51035;DHT22;37062;52.546;13.230;2023-04-24T11:32:19;22.90;99.90
51035;DHT22;37062;52.546;13.230;2023-04-24T11:34:49;22.90;99.90
51035;DHT22;37062;52.546;13.230;2023-04-24T11:37:17;22.80;99.90
51035;DHT22;37062;52.546;13.230;2023-04-24T11:39:45;22.90;99.90
51035;DHT22;37062;52.546;13.230;2023-04-24T11:42:15;22.90;99.90
51035;DHT22;37062;52.546;13.230;2023-04-24T11:44:43;22.80;99.90
51035;DHT22;37062;52.546;13.230;2023-04-24T11:47:14;22.60;99.90
51035;DHT22;37062;52.546;13.230;2023-04-24T11:49:43;22.40;99.90
51035;DHT22;37062;52.546;13.230;2023-04-24T11:52:15;22.30;99.90
51035;DHT22;37062;52.546;13.230;2023-04-24T11:54:48;22.30;99.90
51035;DHT22;37062;52.546;13.230;2023-04-24T11:57:19;22.30;99.90
51035;DHT22;37062;52.546;13.230;2023-04-24T11:59:49;22.30;99.90
51035;DHT22;37062;52.546;13.230;2023-04-24T12:02:21;22.30;99.90
51035;DHT22;37062;52.546;13.230;2023-04-24T12:04:52;22.30;99.90
51035;DHT22;37062;52.546;13.230;2023-04-24T12:07:21;22.30;99.90
51035;DHT22;37062;52.546;13.230;2023-04-24T12:09:55;22.10;99.90
51035;DHT22;37062;52.546;13.230;2023-04-24T12:12:26;21.90;99.90
51035;DHT22;37062;52.546;13.230;2023-04-24T12:14:55;21.90;99.90
51035;DHT22;37062;52.546;13.230;2023-04-24T12:17:26;21.90;99.90
51035;DHT22;37062;52.546;13.230;2023-04-24T12:19:59;21.80;99.90
51035;DHT22;37062;52.546;13.230;2023-04-24T12:22:42;21.90;99.90
51035;DHT22;37062;52.546;13.230;2023-04-24T12:25:11;22.00;99.90
51035;DHT22;37062;52.546;13.230;2023-04-24T12:27:40;22.10;99.90
51035;DHT22;37062;52.546;13.230;2023-04-24T12:30:11;22.10;99.90
51035;DHT22;37062;52.546;13.230;2023-04-24T12:32:43;22.20;99.90
51035;DHT22;37062;52.546;13.230;2023-04-24T12:35:13;22.20;99.90
51035;DHT22;37062;52.546;13.230;2023-04-24T12:37:42;22.20;99.90
51035;DHT22;37062;52.546;13.230;2023-04-24T12:40:14;22.10;99.90
51035;DHT22;37062;52.546;13.230;2023-04-24T12:42:43;22.00;99.90
51035;DHT22;37062;52.546;13.230;2023-04-24T12:45:12;21.90;99.90
51035;DHT22;37062;52.546;13.230;2023-04-24T12:47:42;21.90;99.90
51035;DHT22;37062;52.546;13.230;2023-04-24T12:50:13;21.90;99.90
51035;DHT22;37062;52.546;13.230;2023-04-24T12:52:41;22.00;99.90
51035;DHT22;37062;52.546;13.230;2023-04-24T12:55:10;22.10;99.90
51035;DHT22;37062;52.546;13.230;2023-04-24T12:57:40;22.20;99.90
51035;DHT22;37062;52.546;13.230;2023-04-24T13:00:09;22.20;99.90
51035;DHT22;37062;52.546;13.230;2023-04-24T13:02:37;22.20;99.90
51035;DHT22;37062;52.546;13.230;2023-04-24T13:05:06;22.20;99.90
51035;DHT22;37062;52.546;13.230;2023-04-24T13:07:36;22.10;99.90
51035;DHT22;37062;52.546;13.230;2023-04-24T13:10:04;22.10;99.90
51035;DHT22;37062;52.546;13.230;2023-04-24T13:12:33;22.20;99.90
51035;DHT22;37062;52.546;13.230;2023-04-24T13:15:02;22.20;99.90
51035;DHT22;37062;52.546;13.230;2023-04-24T13:17:30;22.30;99.90
51035;DHT22;37062;52.546;13.230;2023-04-24T13:19:59;22.10;99.90
51035;DHT22;37062;52.546;13.230;2023-04-24T13:22:28;22.10;99.90
51035;DHT22;37062;52.546;13.230;2023-04-24T13:24:57;22.00;99.90
51035;DHT22;37062;52.546;13.230;2023-04-24T13:27:26;21.90;99.90
51035;DHT22;37062;52.546;13.230;2023-04-24T13:29:54;21.90;99.90
51035;DHT22;37062;52.546;13.230;2023-04-24T13:32:22;21.90;99.90
51035;DHT22;37062;52.546;13.230;2023-04-24T13:34:50;22.00;99.90
51035;DHT22;37062;52.546;13.230;2023-04-24T13:37:19;22.00;99.90
51035;DHT22;37062;52.546;13.230;2023-04-24T13:39:47;22.10;99.90
51035;DHT22;37062;52.546;13.230;2023-04-24T13:42:16;22.10;99.90
51035;DHT22;37062;52.546;13.230;2023-04-24T13:44:45;22.30;99.90
51035;DHT22;37062;52.546;13.230;2023-04-24T13:47:13;22.20;99.90
51035;DHT22;37062;52.546;13.230;2023-04-24T13:49:42;22.20;99.90
51035;DHT22;37062;52.546;13.230;2023-04-24T13:52:10;22.20;99.90
51035;DHT22;37062;52.546;13.230;2023-04-24T13:54:38;22.10;99.90
51035;DHT22;37062;52.546;13.230;2023-04-24T13:57:06;22.10;99.90
51035;DHT22;37062;52.546;13.230;2023-04-24T13:59:36;22.10;99.90
51035;DHT22;37062;52.546;13.230;2023-04-24T14:02:04;22.00;99.90
51035;DHT22;37062;52.546;13.230;2023-04-24T14:04:33;22.10;99.90
51035;DHT22;37062;52.546;13.230;2023-04-24T14:07:01;22.20;99.90
51035;DHT22;37062;52.546;13.230;2023-04-24T14:09:29;22.20;99.90
51035;DHT22;37062;52.546;13.230;2023-04-24T14:11:58;22.30;99.90
51035;DHT22;37062;52.546;13.230;2023-04-24T14:14:27;22.10;99.90
51035;DHT22;37062;52.546;13.230;2023-04-24T14:16:58;22.10;99.90
51035;DHT22;37062;52.546;13.230;2023-04-24T14:19:26;22.10;99.90
51035;DHT22;37062;52.546;13.230;2023-04-24T14:21:54;22.10;99.90
51035;DHT22;37062;52.546;13.230;2023-04-24T14:24:25;22.00;99.90
51035;DHT22;37062;52.546;13.230;2023-04-24T14:26:53;21.90;99.90
51035;DHT22;37062;52.546;13.230;2023-04-24T14:29:23;21.90;99.90
51035;DHT22;37062;52.546;13.230;2023-04-24T14:31:53;21.90;99.90
51035;DHT22;37062;52.546;13.230;2023-04-24T14:34:22;21.90;99.90
51035;DHT22;37062;52.546;13.230;2023-04-24T14:36:52;21.90;99.90
51035;DHT22;37062;52.546;13.230;2023-04-24T14:39:20;21.90;99.90
51035;DHT22;37062;52.546;13.230;2023-04-24T14:41:48;21.90;99.90
51035;DHT22;37062;52.546;13.230;2023-04-24T14:44:17;21.90;99.90
51035;DHT22;37062;52.546;13.230;2023-04-24T14:46:45;21.80;99.90
51035;DHT22;37062;52.546;13.230;2023-04-24T14:49:13;21.80;99.90
51035;DHT22;37062;52.546;13.230;2023-04-24T14:51:43;21.60;99.90
51035;DHT22;37062;52.546;13.230;2023-04-24T14:54:11;21.50;99.90
51035;DHT22;37062;52.546;13.230;2023-04-24T14:56:39;21.50;99.90
51035;DHT22;37062;52.546;13.230;2023-04-24T14:59:07;21.40;99.90
51035;DHT22;37062;52.546;13.230;2023-04-24T15:01:36;21.40;99.90
51035;DHT22;37062;52.546;13.230;2023-04-24T15:04:04;21.40;99.90
51035;DHT22;37062;52.546;13.230;2023-04-24T15:06:33;21.30;99.90
51035;DHT22;37062;52.546;13.230;2023-04-24T15:09:02;21.30;99.90
51035;DHT22;37062;52.546;13.230;2023-04-24T15:11:31;21.20;99.90
51035;DHT22;37062;52.546;13.230;2023-04-24T15:13:59;21.10;99.90
51035;DHT22;37062;52.546;13.230;2023-04-24T15:16:28;21.00;99.90
51035;DHT22;37062;52.546;13.230;2023-04-24T15:18:56;20.80;99.90
51035;DHT22;37062;52.546;13.230;2023-04-24T15:21:25;20.70;99.90
51035;DHT22;37062;52.546;13.230;2023-04-24T15:23:53;20.60;99.90
51035;DHT22;37062;52.546;13.230;2023-04-24T15:26:23;20.50;99.90
51035;DHT22;37062;52.546;13.230;2023-04-24T15:28:52;20.50;99.90
51035;DHT22;37062;52.546;13.230;2023-04-24T15:31:20;20.50;99.90